sensor_id;sensor_type;location;lat;lon;timestamp;temperature;humidity
47514;DHT22;33951;51.988;5.910;2023-03-25T00:01:32;9.50;99.90
47514;DHT22;33951;51.988;5.910;2023-03-25T00:04:04;9.50;99.90
47514;DHT22;33951;51.988;5.910;2023-03-25T00:06:33;9.50;99.90
47514;DHT22;33951;51.988;5.910;2023-03-25T00:08:59;9.40;99.90
47514;DHT22;33951;51.988;5.910;2023-03-25T00:11:29;9.40;99.90
47514;DHT22;33951;51.988;5.910;2023-03-25T00:14:09;9.40;99.90
47514;DHT22;33951;51.988;5.910;2023-03-25T00:16:57;9.40;99.90
47514;DHT22;33951;51.988;5.910;2023-03-25T00:20:19;9.40;99.90
47514;DHT22;33951;51.988;5.910;2023-03-25T00:26:21;9.40;99.90
47514;DHT22;33951;51.988;5.910;2023-03-25T00:29:11;9.30;99.90
47514;DHT22;33951;51.988;5.910;2023-03-25T00:32:19;9.30;99.90
47514;DHT22;33951;51.988;5.910;2023-03-25T00:35:15;9.40;99.90
47514;DHT22;33951;51.988;5.910;2023-03-25T00:41:28;9.40;99.90
47514;DHT22;33951;51.988;5.910;2023-03-25T00:44:15;9.40;99.90
47514;DHT22;33951;51.988;5.910;2023-03-25T00:47:25;9.40;99.90
47514;DHT22;33951;51.988;5.910;2023-03-25T00:50:15;9.40;99.90
47514;DHT22;33951;51.988;5.910;2023-03-25T00:52:50;9.40;99.90
47514;DHT22;33951;51.988;5.910;2023-03-25T00:56:02;9.50;99.90
47514;DHT22;33951;51.988;5.910;2023-03-25T07:04:36;8.60;99.90
47514;DHT22;33951;51.988;5.910;2023-03-25T07:14:35;8.60;99.90
47514;DHT22;33951;51.988;5.910;2023-03-25T07:17:00;8.70;99.90
47514;DHT22;33951;51.988;5.910;2023-03-25T07:19:26;8.80;99.90
47514;DHT22;33951;51.988;5.910;2023-03-25T07:21:52;8.80;99.90
47514;DHT22;33951;51.988;5.910;2023-03-25T07:24:17;8.90;99.90
47514;DHT22;33951;51.988;5.910;2023-03-25T07:26:43;8.90;99.90
47514;DHT22;33951;51.988;5.910;2023-03-25T07:29:09;9.00;99.90
47514;DHT22;33951;51.988;5.910;2023-03-25T07:31:34;8.90;99.90
47514;DHT22;33951;51.988;5.910;2023-03-25T07:34:11;8.80;99.90
47514;DHT22;33951;51.988;5.910;2023-03-25T07:36:37;8.60;99.90
47514;DHT22;33951;51.988;5.910;2023-03-25T07:39:02;8.70;99.90
47514;DHT22;33951;51.988;5.910;2023-03-25T07:41:28;8.70;99.90
47514;DHT22;33951;51.988;5.910;2023-03-25T07:43:56;8.60;99.90
47514;DHT22;33951;51.988;5.910;2023-03-25T07:46:22;8.70;99.90
47514;DHT22;33951;51.988;5.910;2023-03-25T07:48:47;8.70;99.90
47514;DHT22;33951;51.988;5.910;2023-03-25T07:51:13;8.60;99.90
47514;DHT22;33951;51.988;5.910;2023-03-25T07:53:39;8.60;99.90
47514;DHT22;33951;51.988;5.910;2023-03-25T07:56:07;8.60;99.90
47514;DHT22;33951;51.988;5.910;2023-03-25T07:58:33;8.60;99.90
47514;DHT22;33951;51.988;5.910;2023-03-25T08:00:59;8.60;99.90
47514;DHT22;33951;51.988;5.910;2023-03-25T08:03:27;8.60;99.90
47514;DHT22;33951;51.988;5.910;2023-03-25T08:05:53;8.60;99.90
47514;DHT22;33951;51.988;5.910;2023-03-25T08:08:19;8.70;99.90
47514;DHT22;33951;51.988;5.910;2023-03-25T08:10:51;8.70;99.90
47514;DHT22;33951;51.988;5.910;2023-03-25T08:13:17;8.70;99.90
47514;DHT22;33951;51.988;5.910;2023-03-25T08:15:43;8.70;99.90
47514;DHT22;33951;51.988;5.910;2023-03-25T08:18:09;8.70;99.90
47514;DHT22;33951;51.988;5.910;2023-03-25T08:20:35;8.70;99.90
47514;DHT22;33951;51.988;5.910;2023-03-25T08:23:01;8.60;99.90
47514;DHT22;33951;51.988;5.910;2023-03-25T08:25:28;8.60;99.90
47514;DHT22;33951;51.988;5.910;2023-03-25T08:27:54;8.60;99.90
47514;DHT22;33951;51.988;5.910;2023-03-25T08:30:20;8.60;99.90
47514;DHT22;33951;51.988;5.910;2023-03-25T08:32:46;8.70;99.90
47514;DHT22;33951;51.988;5.910;2023-03-25T08:35:19;8.80;99.90
47514;DHT22;33951;51.988;5.910;2023-03-25T08:37:48;8.80;99.90
47514;DHT22;33951;51.988;5.910;2023-03-25T08:40:14;8.80;99.90
47514;DHT22;33951;51.988;5.910;2023-03-25T08:42:42;9.00;99.90
47514;DHT22;33951;51.988;5.910;2023-03-25T08:45:08;9.00;99.90
47514;DHT22;33951;51.988;5.910;2023-03-25T08:47:34;9.10;99.90
47514;DHT22;33951;51.988;5.910;2023-03-25T08:50:02;9.20;99.90
47514;DHT22;33951;51.988;5.910;2023-03-25T08:52:28;9.20;99.90
47514;DHT22;33951;51.988;5.910;2023-03-25T08:54:56;9.30;99.90
47514;DHT22;33951;51.988;5.910;2023-03-25T08:57:22;9.40;99.90
47514;DHT22;33951;51.988;5.910;2023-03-25T08:59:47;9.50;99.90
47514;DHT22;33951;51.988;5.910;2023-03-25T09:02:14;9.50;99.90
47514;DHT22;33951;51.988;5.910;2023-03-25T09:04:40;9.40;99.90
47514;DHT22;33951;51.988;5.910;2023-03-25T09:07:06;9.60;99.90
47514;DHT22;33951;51.988;5.910;2023-03-25T09:09:36;9.60;99.90
47514;DHT22;33951;51.988;5.910;2023-03-25T09:12:03;9.50;99.90
47514;DHT22;33951;51.988;5.910;2023-03-25T09:14:36;9.30;99.90
47514;DHT22;33951;51.988;5.910;2023-03-25T09:17:02;9.30;99.90
47514;DHT22;33951;51.988;5.910;2023-03-25T09:19:28;9.20;99.90
47514;DHT22;33951;51.988;5.910;2023-03-25T09:21:54;9.10;99.90
47514;DHT22;33951;51.988;5.910;2023-03-25T09:24:20;9.10;99.90
47514;DHT22;33951;51.988;5.910;2023-03-25T09:27:12;9.10;99.90
47514;DHT22;33951;51.988;5.910;2023-03-25T09:29:44;9.30;99.90
47514;DHT22;33951;51.988;5.910;2023-03-25T09:32:12;9.30;99.90
47514;DHT22;33951;51.988;5.910;2023-03-25T09:35:04;9.30;99.90
47514;DHT22;33951;51.988;5.910;2023-03-25T09:50:38;9.30;99.90
47514;DHT22;33951;51.988;5.910;2023-03-25T09:55:39;9.40;99.90
47514;DHT22;33951;51.988;5.910;2023-03-25T10:35:34;10.40;99.90
47514;DHT22;33951;51.988;5.910;2023-03-25T10:38:10;10.50;99.90
47514;DHT22;33951;51.988;5.910;2023-03-25T10:40:42;10.50;99.90
47514;DHT22;33951;51.988;5.910;2023-03-25T10:43:29;10.30;99.90
47514;DHT22;33951;51.988;5.910;2023-03-25T10:48:37;10.00;99.90
47514;DHT22;33951;51.988;5.910;2023-03-25T10:51:09;9.90;99.90
47514;DHT22;33951;51.988;5.910;2023-03-25T10:53:35;10.00;99.90
47514;DHT22;33951;51.988;5.910;2023-03-25T11:01:53;9.70;99.90
47514;DHT22;33951;51.988;5.910;2023-03-25T11:04:33;9.70;99.90
47514;DHT22;33951;51.988;5.910;2023-03-25T11:13:27;9.70;99.90
47514;DHT22;33951;51.988;5.910;2023-03-25T11:22:15;9.90;99.90
47514;DHT22;33951;51.988;5.910;2023-03-25T11:24:46;9.90;99.90
47514;DHT22;33951;51.988;5.910;2023-03-25T11:27:23;9.90;99.90
47514;DHT22;33951;51.988;5.910;2023-03-25T11:29:53;9.90;99.90
47514;DHT22;33951;51.988;5.910;2023-03-25T11:32:30;9.90;99.90
47514;DHT22;33951;51.988;5.910;2023-03-25T11:34:59;9.80;99.90
47514;DHT22;33951;51.988;5.910;2023-03-25T11:37:25;9.70;99.90
47514;DHT22;33951;51.988;5.910;2023-03-25T11:39:55;9.70;99.90
47514;DHT22;33951;51.988;5.910;2023-03-25T11:42:29;9.60;99.90
47514;DHT22;33951;51.988;5.910;2023-03-25T11:44:58;9.60;99.90
47514;DHT22;33951;51.988;5.910;2023-03-25T11:47:36;9.70;99.90
47514;DHT22;33951;51.988;5.910;2023-03-25T11:50:04;9.90;99.90
47514;DHT22;33951;51.988;5.910;2023-03-25T11:52:39;10.10;99.90
47514;DHT22;33951;51.988;5.910;2023-03-25T11:55:15;10.20;99.90
47514;DHT22;33951;51.988;5.910;2023-03-25T11:57:41;10.40;99.90
47514;DHT22;33951;51.988;5.910;2023-03-25T12:00:25;10.60;99.90
47514;DHT22;33951;51.988;5.910;2023-03-25T12:03:04;10.60;99.90
47514;DHT22;33951;51.988;5.910;2023-03-25T12:05:31;10.70;99.90
47514;DHT22;33951;51.988;5.910;2023-03-25T12:08:13;10.70;99.90
47514;DHT22;33951;51.988;5.910;2023-03-25T12:10:52;10.80;99.90
47514;DHT22;33951;51.988;5.910;2023-03-25T12:24:20;11.10;99.90
47514;DHT22;33951;51.988;5.910;2023-03-25T12:30:07;11.20;99.90
47514;DHT22;33951;51.988;5.910;2023-03-25T12:33:18;11.50;99.90
47514;DHT22;33951;51.988;5.910;2023-03-25T12:35:54;11.40;99.90
47514;DHT22;33951;51.988;5.910;2023-03-25T12:41:12;11.30;99.90
47514;DHT22;33951;51.988;5.910;2023-03-25T13:01:11;9.30;99.90
47514;DHT22;33951;51.988;5.910;2023-03-25T13:06:57;9.10;99.90
47514;DHT22;33951;51.988;5.910;2023-03-25T13:12:13;9.10;99.90
47514;DHT22;33951;51.988;5.910;2023-03-25T13:15:06;9.30;99.90
47514;DHT22;33951;51.988;5.910;2023-03-25T13:17:43;9.70;99.90
47514;DHT22;33951;51.988;5.910;2023-03-25T13:20:10;10.30;99.90
47514;DHT22;33951;51.988;5.910;2023-03-25T13:22:42;10.70;99.90
47514;DHT22;33951;51.988;5.910;2023-03-25T13:25:17;10.90;99.90
47514;DHT22;33951;51.988;5.910;2023-03-25T13:27:45;10.90;99.90
47514;DHT22;33951;51.988;5.910;2023-03-25T13:30:18;10.90;99.90
47514;DHT22;33951;51.988;5.910;2023-03-25T13:33:10;10.90;99.90
47514;DHT22;33951;51.988;5.910;2023-03-25T13:35:46;10.80;99.90
47514;DHT22;33951;51.988;5.910;2023-03-25T13:38:39;10.80;99.90
47514;DHT22;33951;51.988;5.910;2023-03-25T13:41:27;10.80;99.90
47514;DHT22;33951;51.988;5.910;2023-03-25T13:44:05;10.80;99.90
47514;DHT22;33951;51.988;5.910;2023-03-25T13:49:27;11.00;99.90
47514;DHT22;33951;51.988;5.910;2023-03-25T13:51:54;11.00;99.90
47514;DHT22;33951;51.988;5.910;2023-03-25T13:54:27;11.10;99.90
47514;DHT22;33951;51.988;5.910;2023-03-25T13:57:29;11.00;99.90
47514;DHT22;33951;51.988;5.910;2023-03-25T14:00:26;11.20;99.90
47514;DHT22;33951;51.988;5.910;2023-03-25T14:08:59;11.40;99.90
47514;DHT22;33951;51.988;5.910;2023-03-25T14:14:11;11.20;99.90
47514;DHT22;33951;51.988;5.910;2023-03-25T14:16:42;11.20;99.90
47514;DHT22;33951;51.988;5.910;2023-03-25T14:19:16;11.20;99.90
47514;DHT22;33951;51.988;5.910;2023-03-25T14:21:48;10.80;99.90
47514;DHT22;33951;51.988;5.910;2023-03-25T14:24:27;11.00;99.90
47514;DHT22;33951;51.988;5.910;2023-03-25T14:29:43;11.40;99.90
47514;DHT22;33951;51.988;5.910;2023-03-25T14:34:51;11.20;99.90
47514;DHT22;33951;51.988;5.910;2023-03-25T14:43:36;10.50;99.90
47514;DHT22;33951;51.988;5.910;2023-03-25T14:46:15;10.30;99.90
47514;DHT22;33951;51.988;5.910;2023-03-25T14:49:45;9.90;99.90
47514;DHT22;33951;51.988;5.910;2023-03-25T14:51:56;9.50;99.90
47514;DHT22;33951;51.988;5.910;2023-03-25T14:54:52;9.30;99.90
47514;DHT22;33951;51.988;5.910;2023-03-25T14:57:37;9.60;99.90
47514;DHT22;33951;51.988;5.910;2023-03-25T15:03:43;9.90;99.90
47514;DHT22;33951;51.988;5.910;2023-03-25T15:06:17;10.20;99.90
47514;DHT22;33951;51.988;5.910;2023-03-25T15:08:54;10.50;99.90
47514;DHT22;33951;51.988;5.910;2023-03-25T15:12:00;10.80;99.90
47514;DHT22;33951;51.988;5.910;2023-03-25T15:14:41;11.00;99.90
47514;DHT22;33951;51.988;5.910;2023-03-25T15:17:11;11.10;99.90
47514;DHT22;33951;51.988;5.910;2023-03-25T15:22:34;11.40;99.90
47514;DHT22;33951;51.988;5.910;2023-03-25T15:25:00;11.60;99.90
47514;DHT22;33951;51.988;5.910;2023-03-25T15:27:41;11.70;99.90
47514;DHT22;33951;51.988;5.910;2023-03-25T15:33:27;11.70;99.90
47514;DHT22;33951;51.988;5.910;2023-03-25T15:42:06;11.70;99.90
47514;DHT22;33951;51.988;5.910;2023-03-25T15:44:47;11.70;99.90
47514;DHT22;33951;51.988;5.910;2023-03-25T15:50:56;11.60;99.90
47514;DHT22;33951;51.988;5.910;2023-03-25T15:56:43;11.50;99.90
47514;DHT22;33951;51.988;5.910;2023-03-25T15:59:41;11.60;99.90
47514;DHT22;33951;51.988;5.910;2023-03-25T16:02:31;11.50;99.90
47514;DHT22;33951;51.988;5.910;2023-03-25T16:05:02;11.50;99.90
47514;DHT22;33951;51.988;5.910;2023-03-25T16:07:28;11.50;99.90
47514;DHT22;33951;51.988;5.910;2023-03-25T16:12:50;11.50;99.90
47514;DHT22;33951;51.988;5.910;2023-03-25T16:15:25;11.00;99.90
47514;DHT22;33951;51.988;5.910;2023-03-25T16:17:51;10.70;99.90
47514;DHT22;33951;51.988;5.910;2023-03-25T16:20:24;10.20;99.90
47514;DHT22;33951;51.988;5.910;2023-03-25T16:22:55;9.80;99.90
47514;DHT22;33951;51.988;5.910;2023-03-25T16:25:35;9.70;99.90
47514;DHT22;33951;51.988;5.910;2023-03-25T16:28:07;9.60;99.90
47514;DHT22;33951;51.988;5.910;2023-03-25T16:30:43;9.60;99.90
47514;DHT22;33951;51.988;5.910;2023-03-25T16:33:15;9.50;99.90
47514;DHT22;33951;51.988;5.910;2023-03-25T16:35:48;9.50;99.90
47514;DHT22;33951;51.988;5.910;2023-03-25T16:38:23;9.60;99.90
47514;DHT22;33951;51.988;5.910;2023-03-25T16:40:59;9.50;99.90
47514;DHT22;33951;51.988;5.910;2023-03-25T16:43:38;9.50;99.90
47514;DHT22;33951;51.988;5.910;2023-03-25T16:46:11;9.60;99.90
47514;DHT22;33951;51.988;5.910;2023-03-25T16:49:01;9.60;99.90
47514;DHT22;33951;51.988;5.910;2023-03-25T16:51:29;9.70;99.90
47514;DHT22;33951;51.988;5.910;2023-03-25T16:54:00;9.60;99.90
47514;DHT22;33951;51.988;5.910;2023-03-25T16:56:40;9.60;99.90
47514;DHT22;33951;51.988;5.910;2023-03-25T16:59:32;9.60;99.90
47514;DHT22;33951;51.988;5.910;2023-03-25T17:02:03;9.80;99.90
47514;DHT22;33951;51.988;5.910;2023-03-25T17:04:50;9.80;99.90
47514;DHT22;33951;51.988;5.910;2023-03-25T17:07:28;9.80;99.90
47514;DHT22;33951;51.988;5.910;2023-03-25T17:10:27;9.90;99.90
47514;DHT22;33951;51.988;5.910;2023-03-25T17:13:16;10.10;99.90
47514;DHT22;33951;51.988;5.910;2023-03-25T18:27:34;8.30;99.90
47514;DHT22;33951;51.988;5.910;2023-03-25T18:30:53;8.30;99.90
47514;DHT22;33951;51.988;5.910;2023-03-25T21:33:55;7.90;99.90
47514;DHT22;33951;51.988;5.910;2023-03-25T21:36:28;7.90;99.90
47514;DHT22;33951;51.988;5.910;2023-03-25T21:42:20;7.90;99.90
47514;DHT22;33951;51.988;5.910;2023-03-25T21:47:35;8.00;99.90
47514;DHT22;33951;51.988;5.910;2023-03-25T21:50:11;8.00;99.90
47514;DHT22;33951;51.988;5.910;2023-03-25T21:52:58;8.10;99.90
47514;DHT22;33951;51.988;5.910;2023-03-25T21:55:54;8.10;99.90
47514;DHT22;33951;51.988;5.910;2023-03-25T21:58:46;8.10;99.90
47514;DHT22;33951;51.988;5.910;2023-03-25T22:01:34;8.10;99.90
47514;DHT22;33951;51.988;5.910;2023-03-25T22:04:14;8.20;99.90
47514;DHT22;33951;51.988;5.910;2023-03-25T22:07:14;8.20;99.90
47514;DHT22;33951;51.988;5.910;2023-03-25T22:09:55;8.20;99.90
47514;DHT22;33951;51.988;5.910;2023-03-25T22:12:36;8.20;99.90
47514;DHT22;33951;51.988;5.910;2023-03-25T22:15:07;8.10;99.90
47514;DHT22;33951;51.988;5.910;2023-03-25T22:17:44;8.20;99.90
47514;DHT22;33951;51.988;5.910;2023-03-25T22:20:32;8.20;99.90
47514;DHT22;33951;51.988;5.910;2023-03-25T22:23:08;8.20;99.90
47514;DHT22;33951;51.988;5.910;2023-03-25T22:25:41;8.20;99.90
47514;DHT22;33951;51.988;5.910;2023-03-25T22:28:31;8.30;99.90
47514;DHT22;33951;51.988;5.910;2023-03-25T22:31:26;8.40;99.90
47514;DHT22;33951;51.988;5.910;2023-03-25T22:34:02;8.40;99.90
47514;DHT22;33951;51.988;5.910;2023-03-25T22:36:40;8.30;99.90
47514;DHT22;33951;51.988;5.910;2023-03-25T22:39:44;8.30;99.90
47514;DHT22;33951;51.988;5.910;2023-03-25T22:42:27;8.30;99.90
47514;DHT22;33951;51.988;5.910;2023-03-25T22:45:16;8.30;99.90
47514;DHT22;33951;51.988;5.910;2023-03-25T22:48:09;8.20;99.90
47514;DHT22;33951;51.988;5.910;2023-03-25T22:51:13;8.20;99.90
47514;DHT22;33951;51.988;5.910;2023-03-25T22:53:43;8.20;99.90
47514;DHT22;33951;51.988;5.910;2023-03-25T22:56:19;8.20;99.90
47514;DHT22;33951;51.988;5.910;2023-03-25T23:01:42;8.30;99.90
47514;DHT22;33951;51.988;5.910;2023-03-25T23:04:17;8.40;99.90
47514;DHT22;33951;51.988;5.910;2023-03-25T23:06:46;8.30;99.90
47514;DHT22;33951;51.988;5.910;2023-03-25T23:09:17;8.30;99.90
47514;DHT22;33951;51.988;5.910;2023-03-25T23:12:01;8.30;99.90
47514;DHT22;33951;51.988;5.910;2023-03-25T23:14:30;8.30;99.90
47514;DHT22;33951;51.988;5.910;2023-03-25T23:17:07;8.30;99.90
47514;DHT22;33951;51.988;5.910;2023-03-25T23:22:21;8.30;99.90
47514;DHT22;33951;51.988;5.910;2023-03-25T23:24:56;8.20;99.90
47514;DHT22;33951;51.988;5.910;2023-03-25T23:27:26;8.20;99.90
47514;DHT22;33951;51.988;5.910;2023-03-25T23:29:57;8.20;99.90
47514;DHT22;33951;51.988;5.910;2023-03-25T23:32:32;8.30;99.90
47514;DHT22;33951;51.988;5.910;2023-03-25T23:35:01;8.20;99.90
47514;DHT22;33951;51.988;5.910;2023-03-25T23:37:36;8.30;99.90
47514;DHT22;33951;51.988;5.910;2023-03-25T23:40:13;8.20;99.90
47514;DHT22;33951;51.988;5.910;2023-03-25T23:42:39;8.20;99.90
47514;DHT22;33951;51.988;5.910;2023-03-25T23:45:18;8.20;99.90
47514;DHT22;33951;51.988;5.910;2023-03-25T23:48:17;8.20;99.90
47514;DHT22;33951;51.988;5.910;2023-03-25T23:50:59;8.10;99.90
47514;DHT22;33951;51.988;5.910;2023-03-25T23:54:12;8.10;99.90
47514;DHT22;33951;51.988;5.910;2023-03-25T23:56:26;8.00;99.90
47514;DHT22;33951;51.988;5.910;2023-03-25T23:59:00;8.00;99.90
